sensor_id;sensor_type;location;lat;lon;timestamp;P1;durP1;ratioP1;P2;durP2;ratioP2
70543;SDS011;58097;48.364;-1.224;2022-08-19T00:00:24;9.73;;;7.22;;
70543;SDS011;58097;48.364;-1.224;2022-08-19T00:02:50;11.50;;;7.00;;
70543;SDS011;58097;48.364;-1.224;2022-08-19T00:05:16;9.38;;;7.72;;
70543;SDS011;58097;48.364;-1.224;2022-08-19T00:07:44;8.82;;;7.13;;
70543;SDS011;58097;48.364;-1.224;2022-08-19T00:10:11;10.50;;;6.85;;
70543;SDS011;58097;48.364;-1.224;2022-08-19T00:12:39;11.15;;;7.15;;
70543;SDS011;58097;48.364;-1.224;2022-08-19T00:15:06;11.40;;;6.72;;
70543;SDS011;58097;48.364;-1.224;2022-08-19T00:17:37;12.30;;;7.68;;
70543;SDS011;58097;48.364;-1.224;2022-08-19T00:20:04;7.60;;;6.63;;
70543;SDS011;58097;48.364;-1.224;2022-08-19T00:22:30;13.63;;;7.55;;
70543;SDS011;58097;48.364;-1.224;2022-08-19T00:24:56;9.88;;;7.20;;
70543;SDS011;58097;48.364;-1.224;2022-08-19T00:27:22;12.30;;;7.63;;
70543;SDS011;58097;48.364;-1.224;2022-08-19T00:29:47;8.60;;;6.72;;
70543;SDS011;58097;48.364;-1.224;2022-08-19T00:32:13;9.82;;;7.47;;
70543;SDS011;58097;48.364;-1.224;2022-08-19T00:34:38;10.98;;;7.55;;
70543;SDS011;58097;48.364;-1.224;2022-08-19T00:37:04;10.82;;;7.18;;
70543;SDS011;58097;48.364;-1.224;2022-08-19T00:39:30;16.88;;;8.32;;
70543;SDS011;58097;48.364;-1.224;2022-08-19T00:41:55;11.05;;;7.45;;
70543;SDS011;58097;48.364;-1.224;2022-08-19T00:44:24;11.43;;;8.00;;
70543;SDS011;58097;48.364;-1.224;2022-08-19T00:46:52;14.05;;;8.10;;
70543;SDS011;58097;48.364;-1.224;2022-08-19T00:49:25;13.00;;;7.40;;
70543;SDS011;58097;48.364;-1.224;2022-08-19T00:55:01;10.07;;;7.10;;
70543;SDS011;58097;48.364;-1.224;2022-08-19T00:57:32;10.88;;;7.97;;
70543;SDS011;58097;48.364;-1.224;2022-08-19T01:00:05;12.55;;;8.10;;
70543;SDS011;58097;48.364;-1.224;2022-08-19T01:02:36;7.50;;;6.65;;
70543;SDS011;58097;48.364;-1.224;2022-08-19T01:05:04;11.70;;;7.28;;
70543;SDS011;58097;48.364;-1.224;2022-08-19T01:07:34;12.93;;;7.30;;
70543;SDS011;58097;48.364;-1.224;2022-08-19T01:10:03;8.20;;;6.55;;
70543;SDS011;58097;48.364;-1.224;2022-08-19T01:12:31;8.48;;;7.28;;
70543;SDS011;58097;48.364;-1.224;2022-08-19T01:14:57;8.90;;;6.68;;
70543;SDS011;58097;48.364;-1.224;2022-08-19T01:17:24;10.43;;;7.05;;
70543;SDS011;58097;48.364;-1.224;2022-08-19T01:19:50;8.07;;;6.57;;
70543;SDS011;58097;48.364;-1.224;2022-08-19T01:22:20;9.27;;;6.15;;
70543;SDS011;58097;48.364;-1.224;2022-08-19T01:24:57;12.15;;;7.03;;
70543;SDS011;58097;48.364;-1.224;2022-08-19T01:27:22;8.88;;;6.97;;
70543;SDS011;58097;48.364;-1.224;2022-08-19T01:29:48;10.93;;;7.60;;
70543;SDS011;58097;48.364;-1.224;2022-08-19T01:32:17;10.93;;;7.47;;
70543;SDS011;58097;48.364;-1.224;2022-08-19T01:34:44;9.40;;;7.22;;
70543;SDS011;58097;48.364;-1.224;2022-08-19T01:37:12;13.55;;;8.10;;
70543;SDS011;58097;48.364;-1.224;2022-08-19T01:39:39;10.15;;;7.80;;
70543;SDS011;58097;48.364;-1.224;2022-08-19T01:42:06;9.60;;;6.90;;
70543;SDS011;58097;48.364;-1.224;2022-08-19T01:44:36;13.30;;;7.47;;
70543;SDS011;58097;48.364;-1.224;2022-08-19T01:47:03;9.30;;;7.43;;
70543;SDS011;58097;48.364;-1.224;2022-08-19T01:49:29;9.63;;;7.38;;
70543;SDS011;58097;48.364;-1.224;2022-08-19T01:51:55;9.05;;;6.40;;
70543;SDS011;58097;48.364;-1.224;2022-08-19T01:54:21;9.63;;;6.25;;
70543;SDS011;58097;48.364;-1.224;2022-08-19T01:56:49;7.28;;;6.43;;
70543;SDS011;58097;48.364;-1.224;2022-08-19T01:59:17;6.80;;;5.88;;
70543;SDS011;58097;48.364;-1.224;2022-08-19T02:01:45;8.23;;;6.18;;
70543;SDS011;58097;48.364;-1.224;2022-08-19T02:04:11;8.15;;;6.50;;
70543;SDS011;58097;48.364;-1.224;2022-08-19T02:06:36;8.10;;;6.28;;
70543;SDS011;58097;48.364;-1.224;2022-08-19T02:09:03;8.55;;;5.80;;
70543;SDS011;58097;48.364;-1.224;2022-08-19T02:11:31;6.47;;;5.30;;
70543;SDS011;58097;48.364;-1.224;2022-08-19T02:13:59;7.45;;;5.90;;
70543;SDS011;58097;48.364;-1.224;2022-08-19T02:16:27;8.82;;;5.70;;
70543;SDS011;58097;48.364;-1.224;2022-08-19T02:18:53;8.77;;;5.30;;
70543;SDS011;58097;48.364;-1.224;2022-08-19T02:21:20;7.13;;;4.97;;
70543;SDS011;58097;48.364;-1.224;2022-08-19T02:23:47;8.05;;;5.32;;
70543;SDS011;58097;48.364;-1.224;2022-08-19T02:26:14;6.97;;;5.05;;
70543;SDS011;58097;48.364;-1.224;2022-08-19T02:28:40;5.60;;;4.50;;
70543;SDS011;58097;48.364;-1.224;2022-08-19T02:31:12;7.20;;;5.32;;
70543;SDS011;58097;48.364;-1.224;2022-08-19T02:33:42;7.57;;;4.78;;
70543;SDS011;58097;48.364;-1.224;2022-08-19T02:36:09;7.72;;;5.75;;
70543;SDS011;58097;48.364;-1.224;2022-08-19T02:38:38;6.22;;;4.68;;
70543;SDS011;58097;48.364;-1.224;2022-08-19T02:41:05;6.82;;;5.25;;
70543;SDS011;58097;48.364;-1.224;2022-08-19T02:43:36;8.63;;;5.05;;
70543;SDS011;58097;48.364;-1.224;2022-08-19T02:48:52;5.25;;;4.35;;
70543;SDS011;58097;48.364;-1.224;2022-08-19T02:51:22;6.75;;;5.72;;
70543;SDS011;58097;48.364;-1.224;2022-08-19T02:53:50;7.78;;;5.38;;
70543;SDS011;58097;48.364;-1.224;2022-08-19T02:56:16;8.48;;;5.95;;
70543;SDS011;58097;48.364;-1.224;2022-08-19T02:58:43;8.43;;;5.60;;
70543;SDS011;58097;48.364;-1.224;2022-08-19T03:01:08;8.77;;;5.75;;
70543;SDS011;58097;48.364;-1.224;2022-08-19T03:03:35;8.05;;;6.00;;
70543;SDS011;58097;48.364;-1.224;2022-08-19T03:06:07;7.85;;;5.60;;
70543;SDS011;58097;48.364;-1.224;2022-08-19T03:08:38;7.15;;;5.35;;
70543;SDS011;58097;48.364;-1.224;2022-08-19T03:11:05;8.45;;;5.28;;
70543;SDS011;58097;48.364;-1.224;2022-08-19T03:13:31;6.68;;;5.10;;
70543;SDS011;58097;48.364;-1.224;2022-08-19T03:15:57;5.70;;;4.63;;
70543;SDS011;58097;48.364;-1.224;2022-08-19T03:18:22;7.15;;;4.85;;
70543;SDS011;58097;48.364;-1.224;2022-08-19T03:20:49;6.13;;;5.00;;
70543;SDS011;58097;48.364;-1.224;2022-08-19T03:23:19;10.07;;;5.18;;
70543;SDS011;58097;48.364;-1.224;2022-08-19T03:25:47;6.38;;;4.78;;
70543;SDS011;58097;48.364;-1.224;2022-08-19T03:28:13;5.43;;;4.18;;
70543;SDS011;58097;48.364;-1.224;2022-08-19T03:30:40;6.75;;;4.70;;
70543;SDS011;58097;48.364;-1.224;2022-08-19T03:33:07;6.63;;;4.82;;
70543;SDS011;58097;48.364;-1.224;2022-08-19T03:35:35;5.75;;;4.47;;
70543;SDS011;58097;48.364;-1.224;2022-08-19T03:38:04;6.13;;;4.47;;
70543;SDS011;58097;48.364;-1.224;2022-08-19T03:40:32;7.28;;;4.38;;
70543;SDS011;58097;48.364;-1.224;2022-08-19T03:43:01;4.30;;;3.90;;
70543;SDS011;58097;48.364;-1.224;2022-08-19T03:45:27;4.57;;;3.80;;
70543;SDS011;58097;48.364;-1.224;2022-08-19T03:47:53;7.20;;;4.20;;
70543;SDS011;58097;48.364;-1.224;2022-08-19T03:50:18;6.28;;;4.25;;
70543;SDS011;58097;48.364;-1.224;2022-08-19T03:52:48;7.60;;;4.72;;
70543;SDS011;58097;48.364;-1.224;2022-08-19T03:55:15;4.63;;;4.22;;
70543;SDS011;58097;48.364;-1.224;2022-08-19T03:57:41;6.75;;;4.55;;
70543;SDS011;58097;48.364;-1.224;2022-08-19T04:00:07;5.93;;;4.00;;
70543;SDS011;58097;48.364;-1.224;2022-08-19T04:02:34;5.25;;;3.55;;
70543;SDS011;58097;48.364;-1.224;2022-08-19T04:04:59;5.72;;;3.95;;
70543;SDS011;58097;48.364;-1.224;2022-08-19T04:07:25;5.13;;;3.90;;
70543;SDS011;58097;48.364;-1.224;2022-08-19T04:09:50;4.90;;;3.63;;
70543;SDS011;58097;48.364;-1.224;2022-08-19T04:12:17;4.18;;;3.28;;
70543;SDS011;58097;48.364;-1.224;2022-08-19T04:14:45;6.18;;;3.92;;
70543;SDS011;58097;48.364;-1.224;2022-08-19T04:17:11;4.22;;;3.50;;
70543;SDS011;58097;48.364;-1.224;2022-08-19T04:19:38;4.53;;;3.40;;
70543;SDS011;58097;48.364;-1.224;2022-08-19T04:22:04;3.63;;;3.08;;
70543;SDS011;58097;48.364;-1.224;2022-08-19T04:24:30;3.90;;;3.50;;
70543;SDS011;58097;48.364;-1.224;2022-08-19T04:26:56;6.93;;;3.10;;
70543;SDS011;58097;48.364;-1.224;2022-08-19T04:29:23;4.22;;;3.60;;
70543;SDS011;58097;48.364;-1.224;2022-08-19T04:31:50;4.75;;;3.53;;
70543;SDS011;58097;48.364;-1.224;2022-08-19T04:34:20;3.63;;;3.03;;
70543;SDS011;58097;48.364;-1.224;2022-08-19T04:36:47;6.75;;;4.05;;
70543;SDS011;58097;48.364;-1.224;2022-08-19T04:39:17;6.32;;;3.58;;
70543;SDS011;58097;48.364;-1.224;2022-08-19T04:41:45;3.67;;;3.30;;
70543;SDS011;58097;48.364;-1.224;2022-08-19T04:44:31;5.20;;;3.40;;
70543;SDS011;58097;48.364;-1.224;2022-08-19T04:46:58;4.38;;;3.35;;
70543;SDS011;58097;48.364;-1.224;2022-08-19T04:49:24;5.22;;;3.22;;
70543;SDS011;58097;48.364;-1.224;2022-08-19T04:51:51;3.50;;;3.20;;
70543;SDS011;58097;48.364;-1.224;2022-08-19T04:54:19;3.97;;;3.28;;
70543;SDS011;58097;48.364;-1.224;2022-08-19T04:56:47;4.25;;;3.10;;
70543;SDS011;58097;48.364;-1.224;2022-08-19T04:59:15;3.80;;;3.38;;
70543;SDS011;58097;48.364;-1.224;2022-08-19T05:01:42;4.70;;;3.80;;
70543;SDS011;58097;48.364;-1.224;2022-08-19T05:04:07;4.80;;;4.30;;
70543;SDS011;58097;48.364;-1.224;2022-08-19T05:06:33;5.00;;;3.55;;
70543;SDS011;58097;48.364;-1.224;2022-08-19T05:09:00;4.25;;;3.10;;
70543;SDS011;58097;48.364;-1.224;2022-08-19T05:11:29;5.03;;;3.67;;
70543;SDS011;58097;48.364;-1.224;2022-08-19T05:13:56;3.58;;;3.28;;
70543;SDS011;58097;48.364;-1.224;2022-08-19T05:16:22;6.45;;;3.50;;
70543;SDS011;58097;48.364;-1.224;2022-08-19T05:18:49;3.90;;;3.47;;
70543;SDS011;58097;48.364;-1.224;2022-08-19T05:21:35;5.72;;;3.53;;
70543;SDS011;58097;48.364;-1.224;2022-08-19T05:24:21;5.90;;;4.10;;
70543;SDS011;58097;48.364;-1.224;2022-08-19T05:26:49;5.88;;;4.25;;
70543;SDS011;58097;48.364;-1.224;2022-08-19T05:29:18;4.82;;;4.25;;
70543;SDS011;58097;48.364;-1.224;2022-08-19T05:31:45;4.88;;;3.72;;
70543;SDS011;58097;48.364;-1.224;2022-08-19T05:34:14;5.05;;;3.75;;
70543;SDS011;58097;48.364;-1.224;2022-08-19T05:36:41;5.68;;;3.63;;
70543;SDS011;58097;48.364;-1.224;2022-08-19T05:39:10;7.25;;;4.85;;
70543;SDS011;58097;48.364;-1.224;2022-08-19T05:44:26;4.70;;;3.80;;
70543;SDS011;58097;48.364;-1.224;2022-08-19T05:49:24;6.03;;;3.85;;
70543;SDS011;58097;48.364;-1.224;2022-08-19T05:51:52;3.63;;;3.33;;
70543;SDS011;58097;48.364;-1.224;2022-08-19T05:54:20;4.07;;;3.40;;
70543;SDS011;58097;48.364;-1.224;2022-08-19T05:56:46;4.90;;;3.85;;
70543;SDS011;58097;48.364;-1.224;2022-08-19T05:59:13;4.38;;;3.50;;
70543;SDS011;58097;48.364;-1.224;2022-08-19T06:01:42;5.60;;;3.42;;
70543;SDS011;58097;48.364;-1.224;2022-08-19T06:04:10;5.97;;;3.92;;
70543;SDS011;58097;48.364;-1.224;2022-08-19T06:06:38;4.55;;;4.10;;
70543;SDS011;58097;48.364;-1.224;2022-08-19T06:09:05;5.72;;;3.80;;
70543;SDS011;58097;48.364;-1.224;2022-08-19T06:14:20;4.57;;;4.15;;
70543;SDS011;58097;48.364;-1.224;2022-08-19T06:16:47;6.03;;;4.72;;
70543;SDS011;58097;48.364;-1.224;2022-08-19T06:19:15;5.78;;;4.40;;
70543;SDS011;58097;48.364;-1.224;2022-08-19T06:21:43;7.75;;;4.57;;
70543;SDS011;58097;48.364;-1.224;2022-08-19T06:24:11;5.10;;;4.47;;
70543;SDS011;58097;48.364;-1.224;2022-08-19T06:26:40;7.22;;;4.10;;
70543;SDS011;58097;48.364;-1.224;2022-08-19T06:29:09;4.38;;;3.97;;
70543;SDS011;58097;48.364;-1.224;2022-08-19T06:31:37;4.75;;;4.22;;
70543;SDS011;58097;48.364;-1.224;2022-08-19T06:34:07;7.25;;;4.57;;
70543;SDS011;58097;48.364;-1.224;2022-08-19T06:36:35;6.82;;;4.40;;
70543;SDS011;58097;48.364;-1.224;2022-08-19T06:39:04;5.43;;;4.40;;
70543;SDS011;58097;48.364;-1.224;2022-08-19T06:41:34;5.07;;;4.57;;
70543;SDS011;58097;48.364;-1.224;2022-08-19T06:44:02;7.20;;;4.57;;
70543;SDS011;58097;48.364;-1.224;2022-08-19T06:46:28;8.13;;;5.00;;
70543;SDS011;58097;48.364;-1.224;2022-08-19T06:48:55;5.68;;;4.28;;
70543;SDS011;58097;48.364;-1.224;2022-08-19T06:51:22;5.18;;;4.30;;
70543;SDS011;58097;48.364;-1.224;2022-08-19T06:53:49;5.30;;;3.90;;
70543;SDS011;58097;48.364;-1.224;2022-08-19T06:56:19;5.03;;;4.18;;
70543;SDS011;58097;48.364;-1.224;2022-08-19T06:58:50;4.03;;;3.63;;
70543;SDS011;58097;48.364;-1.224;2022-08-19T07:01:18;6.30;;;5.00;;
70543;SDS011;58097;48.364;-1.224;2022-08-19T07:03:45;5.78;;;4.55;;
70543;SDS011;58097;48.364;-1.224;2022-08-19T07:06:12;4.57;;;4.18;;
70543;SDS011;58097;48.364;-1.224;2022-08-19T07:08:43;5.88;;;4.25;;
70543;SDS011;58097;48.364;-1.224;2022-08-19T07:11:10;6.18;;;4.28;;
70543;SDS011;58097;48.364;-1.224;2022-08-19T07:13:38;6.60;;;4.25;;
70543;SDS011;58097;48.364;-1.224;2022-08-19T07:16:05;5.80;;;4.60;;
70543;SDS011;58097;48.364;-1.224;2022-08-19T07:18:35;6.50;;;4.65;;
70543;SDS011;58097;48.364;-1.224;2022-08-19T07:21:06;7.00;;;4.47;;
70543;SDS011;58097;48.364;-1.224;2022-08-19T07:23:35;6.18;;;4.32;;
70543;SDS011;58097;48.364;-1.224;2022-08-19T07:28:48;5.38;;;4.35;;
70543;SDS011;58097;48.364;-1.224;2022-08-19T07:31:15;6.82;;;4.57;;
70543;SDS011;58097;48.364;-1.224;2022-08-19T07:33:43;6.70;;;4.93;;
70543;SDS011;58097;48.364;-1.224;2022-08-19T07:36:10;7.32;;;4.95;;
70543;SDS011;58097;48.364;-1.224;2022-08-19T07:38:38;7.35;;;4.38;;
70543;SDS011;58097;48.364;-1.224;2022-08-19T07:41:06;5.50;;;4.03;;
70543;SDS011;58097;48.364;-1.224;2022-08-19T07:43:34;7.13;;;4.35;;
70543;SDS011;58097;48.364;-1.224;2022-08-19T07:46:00;5.03;;;4.03;;
70543;SDS011;58097;48.364;-1.224;2022-08-19T07:48:26;6.90;;;4.47;;
70543;SDS011;58097;48.364;-1.224;2022-08-19T07:50:55;8.48;;;4.25;;
70543;SDS011;58097;48.364;-1.224;2022-08-19T07:53:22;7.85;;;4.45;;
70543;SDS011;58097;48.364;-1.224;2022-08-19T07:55:49;6.63;;;4.30;;
70543;SDS011;58097;48.364;-1.224;2022-08-19T07:58:16;5.63;;;4.43;;
70543;SDS011;58097;48.364;-1.224;2022-08-19T08:00:45;6.55;;;4.50;;
70543;SDS011;58097;48.364;-1.224;2022-08-19T08:03:14;5.97;;;4.65;;
70543;SDS011;58097;48.364;-1.224;2022-08-19T08:05:43;6.32;;;4.35;;
70543;SDS011;58097;48.364;-1.224;2022-08-19T08:08:29;11.68;;;5.68;;
70543;SDS011;58097;48.364;-1.224;2022-08-19T08:11:16;10.27;;;4.97;;
70543;SDS011;58097;48.364;-1.224;2022-08-19T08:13:44;5.75;;;4.35;;
70543;SDS011;58097;48.364;-1.224;2022-08-19T08:16:09;8.20;;;5.60;;
70543;SDS011;58097;48.364;-1.224;2022-08-19T08:18:35;7.65;;;5.00;;
70543;SDS011;58097;48.364;-1.224;2022-08-19T08:21:06;6.63;;;4.55;;
70543;SDS011;58097;48.364;-1.224;2022-08-19T08:23:33;5.63;;;4.28;;
70543;SDS011;58097;48.364;-1.224;2022-08-19T08:25:59;5.38;;;4.72;;
70543;SDS011;58097;48.364;-1.224;2022-08-19T08:28:25;10.50;;;4.57;;
70543;SDS011;58097;48.364;-1.224;2022-08-19T08:30:52;6.65;;;4.00;;
70543;SDS011;58097;48.364;-1.224;2022-08-19T08:33:20;6.97;;;4.50;;
70543;SDS011;58097;48.364;-1.224;2022-08-19T08:35:47;7.30;;;4.15;;
70543;SDS011;58097;48.364;-1.224;2022-08-19T08:38:13;9.95;;;4.78;;
70543;SDS011;58097;48.364;-1.224;2022-08-19T08:40:43;5.55;;;3.63;;
70543;SDS011;58097;48.364;-1.224;2022-08-19T08:43:14;6.72;;;4.60;;
70543;SDS011;58097;48.364;-1.224;2022-08-19T08:45:47;6.55;;;4.10;;
70543;SDS011;58097;48.364;-1.224;2022-08-19T08:48:20;7.55;;;3.78;;
70543;SDS011;58097;48.364;-1.224;2022-08-19T08:51:09;5.90;;;3.92;;
70543;SDS011;58097;48.364;-1.224;2022-08-19T08:53:39;6.90;;;4.13;;
70543;SDS011;58097;48.364;-1.224;2022-08-19T08:56:06;7.05;;;4.10;;
70543;SDS011;58097;48.364;-1.224;2022-08-19T09:01:26;8.10;;;4.22;;
70543;SDS011;58097;48.364;-1.224;2022-08-19T09:03:53;7.57;;;3.80;;
70543;SDS011;58097;48.364;-1.224;2022-08-19T09:16:53;7.93;;;4.50;;
70543;SDS011;58097;48.364;-1.224;2022-08-19T09:19:19;7.95;;;4.70;;
70543;SDS011;58097;48.364;-1.224;2022-08-19T09:21:44;11.35;;;4.55;;
70543;SDS011;58097;48.364;-1.224;2022-08-19T09:24:10;8.90;;;4.05;;
70543;SDS011;58097;48.364;-1.224;2022-08-19T09:26:36;7.25;;;4.03;;
70543;SDS011;58097;48.364;-1.224;2022-08-19T09:29:02;7.00;;;3.70;;
70543;SDS011;58097;48.364;-1.224;2022-08-19T09:31:30;7.90;;;3.92;;
70543;SDS011;58097;48.364;-1.224;2022-08-19T09:33:58;6.35;;;3.60;;
70543;SDS011;58097;48.364;-1.224;2022-08-19T09:36:25;6.93;;;3.67;;
70543;SDS011;58097;48.364;-1.224;2022-08-19T09:38:54;6.72;;;3.75;;
70543;SDS011;58097;48.364;-1.224;2022-08-19T09:41:21;6.88;;;4.13;;
70543;SDS011;58097;48.364;-1.224;2022-08-19T09:43:49;5.53;;;3.72;;
70543;SDS011;58097;48.364;-1.224;2022-08-19T09:46:17;11.23;;;4.20;;
70543;SDS011;58097;48.364;-1.224;2022-08-19T09:48:46;7.47;;;3.88;;
70543;SDS011;58097;48.364;-1.224;2022-08-19T09:51:14;5.78;;;3.88;;
70543;SDS011;58097;48.364;-1.224;2022-08-19T09:53:44;9.50;;;3.92;;
70543;SDS011;58097;48.364;-1.224;2022-08-19T09:56:10;8.07;;;3.97;;
70543;SDS011;58097;48.364;-1.224;2022-08-19T09:58:36;7.20;;;4.45;;
70543;SDS011;58097;48.364;-1.224;2022-08-19T10:01:03;7.18;;;4.43;;
70543;SDS011;58097;48.364;-1.224;2022-08-19T10:03:29;6.45;;;4.18;;
70543;SDS011;58097;48.364;-1.224;2022-08-19T10:05:57;8.95;;;4.28;;
70543;SDS011;58097;48.364;-1.224;2022-08-19T10:08:25;5.30;;;3.60;;
70543;SDS011;58097;48.364;-1.224;2022-08-19T10:10:54;6.65;;;3.78;;
70543;SDS011;58097;48.364;-1.224;2022-08-19T10:13:23;7.40;;;3.55;;
70543;SDS011;58097;48.364;-1.224;2022-08-19T10:15:54;6.78;;;3.78;;
70543;SDS011;58097;48.364;-1.224;2022-08-19T10:18:22;7.47;;;3.47;;
70543;SDS011;58097;48.364;-1.224;2022-08-19T10:20:49;5.75;;;3.45;;
70543;SDS011;58097;48.364;-1.224;2022-08-19T10:23:17;8.30;;;3.35;;
70543;SDS011;58097;48.364;-1.224;2022-08-19T10:25:45;6.43;;;3.10;;
70543;SDS011;58097;48.364;-1.224;2022-08-19T10:28:11;6.07;;;2.70;;
70543;SDS011;58097;48.364;-1.224;2022-08-19T10:30:37;6.13;;;2.78;;
70543;SDS011;58097;48.364;-1.224;2022-08-19T10:33:04;6.30;;;3.22;;
70543;SDS011;58097;48.364;-1.224;2022-08-19T10:35:30;5.75;;;3.55;;
70543;SDS011;58097;48.364;-1.224;2022-08-19T10:37:56;6.53;;;3.20;;
70543;SDS011;58097;48.364;-1.224;2022-08-19T10:40:26;5.40;;;3.20;;
70543;SDS011;58097;48.364;-1.224;2022-08-19T10:42:53;6.47;;;3.83;;
70543;SDS011;58097;48.364;-1.224;2022-08-19T10:45:20;6.63;;;3.50;;
70543;SDS011;58097;48.364;-1.224;2022-08-19T10:47:49;5.25;;;3.60;;
70543;SDS011;58097;48.364;-1.224;2022-08-19T10:50:15;6.38;;;3.78;;
70543;SDS011;58097;48.364;-1.224;2022-08-19T10:53:03;7.53;;;2.90;;
70543;SDS011;58097;48.364;-1.224;2022-08-19T10:55:30;4.88;;;3.20;;
70543;SDS011;58097;48.364;-1.224;2022-08-19T10:58:17;5.13;;;3.25;;
70543;SDS011;58097;48.364;-1.224;2022-08-19T11:00:55;6.25;;;3.15;;
70543;SDS011;58097;48.364;-1.224;2022-08-19T11:03:22;7.45;;;2.88;;
70543;SDS011;58097;48.364;-1.224;2022-08-19T11:05:59;7.20;;;3.00;;
70543;SDS011;58097;48.364;-1.224;2022-08-19T11:08:29;5.28;;;2.88;;
70543;SDS011;58097;48.364;-1.224;2022-08-19T11:10:58;7.07;;;3.17;;
70543;SDS011;58097;48.364;-1.224;2022-08-19T11:13:26;5.03;;;2.42;;
70543;SDS011;58097;48.364;-1.224;2022-08-19T11:15:59;7.93;;;3.03;;
70543;SDS011;58097;48.364;-1.224;2022-08-19T11:20:51;5.93;;;2.75;;
70543;SDS011;58097;48.364;-1.224;2022-08-19T11:23:17;5.88;;;2.40;;
70543;SDS011;58097;48.364;-1.224;2022-08-19T11:25:43;8.63;;;2.72;;
70543;SDS011;58097;48.364;-1.224;2022-08-19T11:28:10;5.70;;;2.75;;
70543;SDS011;58097;48.364;-1.224;2022-08-19T11:30:37;5.05;;;2.30;;
70543;SDS011;58097;48.364;-1.224;2022-08-19T11:33:03;6.68;;;2.35;;
70543;SDS011;58097;48.364;-1.224;2022-08-19T11:35:29;5.85;;;2.20;;
70543;SDS011;58097;48.364;-1.224;2022-08-19T11:37:54;6.40;;;2.92;;
70543;SDS011;58097;48.364;-1.224;2022-08-19T11:40:22;3.95;;;2.40;;
70543;SDS011;58097;48.364;-1.224;2022-08-19T11:42:48;5.57;;;2.40;;
70543;SDS011;58097;48.364;-1.224;2022-08-19T11:45:33;3.78;;;2.42;;
70543;SDS011;58097;48.364;-1.224;2022-08-19T11:47:59;4.07;;;2.50;;
70543;SDS011;58097;48.364;-1.224;2022-08-19T11:50:24;5.32;;;2.00;;
70543;SDS011;58097;48.364;-1.224;2022-08-19T11:52:53;7.45;;;1.73;;
70543;SDS011;58097;48.364;-1.224;2022-08-19T11:55:19;4.13;;;2.08;;
70543;SDS011;58097;48.364;-1.224;2022-08-19T11:57:45;3.17;;;1.80;;
70543;SDS011;58097;48.364;-1.224;2022-08-19T12:00:14;5.32;;;1.80;;
70543;SDS011;58097;48.364;-1.224;2022-08-19T12:02:40;7.85;;;2.25;;
70543;SDS011;58097;48.364;-1.224;2022-08-19T12:05:05;7.18;;;2.90;;
70543;SDS011;58097;48.364;-1.224;2022-08-19T12:07:32;4.82;;;2.25;;
70543;SDS011;58097;48.364;-1.224;2022-08-19T12:09:58;9.88;;;2.70;;
70543;SDS011;58097;48.364;-1.224;2022-08-19T12:12:24;5.88;;;2.75;;
70543;SDS011;58097;48.364;-1.224;2022-08-19T12:14:52;6.70;;;2.85;;
70543;SDS011;58097;48.364;-1.224;2022-08-19T12:17:27;5.15;;;2.47;;
70543;SDS011;58097;48.364;-1.224;2022-08-19T12:19:53;9.43;;;3.15;;
70543;SDS011;58097;48.364;-1.224;2022-08-19T12:22:19;8.75;;;2.65;;
70543;SDS011;58097;48.364;-1.224;2022-08-19T12:24:46;10.70;;;2.92;;
70543;SDS011;58097;48.364;-1.224;2022-08-19T12:27:13;6.38;;;3.00;;
70543;SDS011;58097;48.364;-1.224;2022-08-19T12:29:38;9.57;;;3.70;;
70543;SDS011;58097;48.364;-1.224;2022-08-19T12:32:05;6.43;;;2.83;;
70543;SDS011;58097;48.364;-1.224;2022-08-19T12:34:31;7.40;;;3.50;;
70543;SDS011;58097;48.364;-1.224;2022-08-19T12:36:58;8.93;;;3.63;;
70543;SDS011;58097;48.364;-1.224;2022-08-19T12:39:24;6.05;;;3.45;;
70543;SDS011;58097;48.364;-1.224;2022-08-19T12:41:51;7.53;;;3.03;;
70543;SDS011;58097;48.364;-1.224;2022-08-19T12:44:17;7.50;;;3.33;;
70543;SDS011;58097;48.364;-1.224;2022-08-19T12:46:43;6.22;;;2.83;;
70543;SDS011;58097;48.364;-1.224;2022-08-19T12:49:09;3.65;;;2.47;;
70543;SDS011;58097;48.364;-1.224;2022-08-19T12:51:35;4.22;;;2.47;;
70543;SDS011;58097;48.364;-1.224;2022-08-19T12:54:01;5.07;;;2.50;;
70543;SDS011;58097;48.364;-1.224;2022-08-19T12:56:27;7.10;;;2.28;;
70543;SDS011;58097;48.364;-1.224;2022-08-19T12:58:53;4.40;;;2.33;;
70543;SDS011;58097;48.364;-1.224;2022-08-19T13:01:19;10.40;;;2.88;;
70543;SDS011;58097;48.364;-1.224;2022-08-19T13:03:45;3.33;;;2.30;;
70543;SDS011;58097;48.364;-1.224;2022-08-19T13:06:11;4.93;;;2.42;;
70543;SDS011;58097;48.364;-1.224;2022-08-19T13:08:37;5.13;;;2.30;;
70543;SDS011;58097;48.364;-1.224;2022-08-19T13:11:11;6.20;;;2.78;;
70543;SDS011;58097;48.364;-1.224;2022-08-19T13:13:41;6.88;;;2.20;;
70543;SDS011;58097;48.364;-1.224;2022-08-19T13:16:08;5.22;;;2.72;;
70543;SDS011;58097;48.364;-1.224;2022-08-19T13:18:36;6.45;;;2.35;;
70543;SDS011;58097;48.364;-1.224;2022-08-19T13:21:03;5.82;;;2.22;;
70543;SDS011;58097;48.364;-1.224;2022-08-19T13:23:31;3.72;;;2.20;;
70543;SDS011;58097;48.364;-1.224;2022-08-19T13:25:59;5.32;;;2.30;;
70543;SDS011;58097;48.364;-1.224;2022-08-19T13:28:25;4.65;;;2.50;;
70543;SDS011;58097;48.364;-1.224;2022-08-19T13:30:51;3.30;;;2.15;;
70543;SDS011;58097;48.364;-1.224;2022-08-19T13:33:36;6.97;;;2.70;;
70543;SDS011;58097;48.364;-1.224;2022-08-19T13:36:02;3.65;;;2.13;;
70543;SDS011;58097;48.364;-1.224;2022-08-19T13:38:32;3.50;;;2.55;;
70543;SDS011;58097;48.364;-1.224;2022-08-19T13:41:03;5.63;;;2.80;;
70543;SDS011;58097;48.364;-1.224;2022-08-19T13:43:30;5.55;;;1.40;;
70543;SDS011;58097;48.364;-1.224;2022-08-19T13:45:56;6.75;;;1.13;;
70543;SDS011;58097;48.364;-1.224;2022-08-19T13:48:22;2.95;;;0.63;;
70543;SDS011;58097;48.364;-1.224;2022-08-19T13:50:48;3.22;;;0.75;;
70543;SDS011;58097;48.364;-1.224;2022-08-19T13:53:14;2.85;;;0.50;;
70543;SDS011;58097;48.364;-1.224;2022-08-19T13:55:41;1.80;;;0.52;;
70543;SDS011;58097;48.364;-1.224;2022-08-19T13:58:09;3.17;;;0.45;;
70543;SDS011;58097;48.364;-1.224;2022-08-19T14:00:39;0.60;;;0.40;;
70543;SDS011;58097;48.364;-1.224;2022-08-19T14:03:07;0.52;;;0.30;;
70543;SDS011;58097;48.364;-1.224;2022-08-19T14:05:33;3.33;;;0.90;;
70543;SDS011;58097;48.364;-1.224;2022-08-19T14:07:59;1.13;;;0.60;;
70543;SDS011;58097;48.364;-1.224;2022-08-19T14:10:26;2.33;;;0.70;;
70543;SDS011;58097;48.364;-1.224;2022-08-19T14:12:56;3.67;;;0.98;;
70543;SDS011;58097;48.364;-1.224;2022-08-19T14:15:23;1.23;;;0.70;;
70543;SDS011;58097;48.364;-1.224;2022-08-19T14:17:50;0.77;;;0.60;;
70543;SDS011;58097;48.364;-1.224;2022-08-19T14:20:16;2.58;;;0.65;;
70543;SDS011;58097;48.364;-1.224;2022-08-19T14:22:42;1.90;;;0.68;;
70543;SDS011;58097;48.364;-1.224;2022-08-19T14:25:10;2.15;;;0.70;;
70543;SDS011;58097;48.364;-1.224;2022-08-19T14:27:39;0.73;;;0.57;;
70543;SDS011;58097;48.364;-1.224;2022-08-19T14:30:07;1.83;;;0.95;;
70543;SDS011;58097;48.364;-1.224;2022-08-19T14:32:34;1.40;;;0.50;;
70543;SDS011;58097;48.364;-1.224;2022-08-19T14:35:00;1.15;;;0.70;;
70543;SDS011;58097;48.364;-1.224;2022-08-19T14:37:27;1.20;;;0.80;;
70543;SDS011;58097;48.364;-1.224;2022-08-19T14:39:52;1.60;;;0.70;;
70543;SDS011;58097;48.364;-1.224;2022-08-19T14:42:18;2.67;;;1.00;;
70543;SDS011;58097;48.364;-1.224;2022-08-19T14:44:44;1.77;;;0.90;;
70543;SDS011;58097;48.364;-1.224;2022-08-19T14:47:09;2.92;;;0.95;;
70543;SDS011;58097;48.364;-1.224;2022-08-19T14:49:35;3.58;;;1.08;;
70543;SDS011;58097;48.364;-1.224;2022-08-19T14:52:01;1.45;;;0.90;;
70543;SDS011;58097;48.364;-1.224;2022-08-19T14:54:28;1.58;;;0.80;;
70543;SDS011;58097;48.364;-1.224;2022-08-19T14:56:53;2.97;;;1.08;;
70543;SDS011;58097;48.364;-1.224;2022-08-19T14:59:19;4.43;;;1.23;;
70543;SDS011;58097;48.364;-1.224;2022-08-19T15:01:45;5.15;;;1.25;;
70543;SDS011;58097;48.364;-1.224;2022-08-19T15:04:10;1.95;;;1.25;;
70543;SDS011;58097;48.364;-1.224;2022-08-19T15:06:36;3.28;;;1.30;;
70543;SDS011;58097;48.364;-1.224;2022-08-19T15:09:03;4.78;;;1.85;;